Lubbock, TX

5:26 AM CDT on September 19, 2014 (GMT -0500)
Winston | Change Station
CLOSE
Current Station
Airport
Location: Snyder,
Elevation: 2431 ft
Nearby Weather Stations
Active Advisory: Areal Flood Watch

Elev 2431 ft 32.69 °N, 100.95 °W | Updated 11 minutes ago

Overcast
Overcast
68 °F
Feels Like 68 °F
N
6
Wind Variable Wind from NNE

Today
High -- | Low -- °F
--% Chance of Precip.
Yesterday
High -- | Low -- °F
Precip. -- in
7:33 AM 7:48 PM
Waning Crescent, 20% visible
Pressure 29.97 in
Visibility 7.0 miles
Clouds Scattered Clouds 700 ft
Scattered Clouds 1100 ft
Mostly Cloudy 3000 ft
Dew Point 68 °F
Humidity 98%
Rainfall 0.00 in
Snow Depth Not available.
UV 0 out of 12
Pollen 4.80 out of 12
Air Quality Not available.
Flu Activity Not available.
METAR KSNK 191015Z AUTO 03005KT 7SM SCT007 SCT011 BKN030 20/20 A2997 RMK AO2 T02000197

More Conditions Fewer Conditions

Pressure 29.97 in
Visibility 7.0 miles
Clouds Scattered Clouds 700 ft
Scattered Clouds 1100 ft
Mostly Cloudy 3000 ft
Dew Point 68 °F
Humidity 98%
Rainfall 0.00 in
Snow Depth Not available.
UV 0 out of 12
Pollen 4.80 out of 12
Air Quality Not available.
Flu Activity Not available.
METAR KSNK 191015Z AUTO 03005KT 7SM SCT007 SCT011 BKN030 20/20 A2997 RMK AO2 T02000197

More Conditions Fewer Conditions

Nowcast | as of 5:00 am CDT on September 19, 2014

Through 7 am...numerous showers will continue across the South Plains with isolated to scattered showers in the rolling plains. One hour rainfall amounts of one tenth of an inch to one quarter of an inch will be possible where moderate to heavy rainfall occur...while generally less than a tenth of an inch can be expected elsewhere.

×

10-Day Weather Forecast

Almanac

Astronomy

Sep. 19, 2014 Rise Set
Actual Time 7:33 AM CDT 7:48 PM CDT
Civil Twilight 7:08 AM CDT 8:13 PM CDT
Nautical Twilight 6:39 AM CDT 8:42 PM CDT
Astronomical Twilight 6:10 AM CDT 9:11 PM CDT
Moon 3:30 AM CDT 5:09 PM CDT
Length of Visible Light 13h 04m
Length of Day
12h 14m
Tomorrow will be 2m 5s shorter.
Waning Crescent, 20% of the Moon is Illuminated
Today
Waning Crescent
Sep 24
New
Oct 1
First Quarter
Oct 8
Full
Oct 15
Last Quarter

Today's Extremes

State Highs State Lows

Community

WunderPhotos

Upload Photos

1,754,583 photos uploaded!

Nearby

Air Quality

  Air Quality AQ Index Pollutant
Friday Good
PM10
Friday Good
OZONE
Saturday Good
PM10
Saturday Good
OZONE
Sunday Good
PM10
Sunday Good
OZONE

Snow Depth

Station Depth Elevation
No new snow has been reported.

Earthquake Activity

City Distance Mag. Time & Date
No recent earthquake activity has been reported nearby.
Minimum magnitude displayed is 2.5.

Coastal Water Temperatures

Place Temperature
No Stations Reporting

Nearby Weather Stations